Time;durP1;ratioP1;P1;durP2;ratioP2;P2;SDS_P1;SDS_P2;PMS_P1;PMS_P2;Temp;Humidity;BMP_temperature;BMP_pressure;BME280_temperature;BME280_humidity;BME280_pressure;Samples;Min_cycle;Max_cycle;Signal;HPM_P1;HPM_P2
2022/02/28 00:01:14;;;;;;;47.00;19.00;;;;;;;-3.90;68.03;102071.36;130313;1268;108925;-80
2022/02/28 00:04:21;;;;;;;49.10;18.80;;;;;;;-3.89;67.93;102067.35;130297;1268;109048;-81
2022/02/28 00:07:26;;;;;;;44.80;17.90;;;;;;;-3.91;67.92;102070.16;130356;1268;108746;-75
2022/02/28 00:10:32;;;;;;;40.90;16.60;;;;;;;-3.92;67.84;102068.61;130403;1268;108719;-76
2022/02/28 00:13:37;;;;;;;51.20;19.50;;;;;;;-3.94;67.91;102070.52;130302;1268;108799;-75
2022/02/28 00:16:43;;;;;;;76.10;24.90;;;;;;;-3.96;67.68;102071.25;130282;1268;107393;-76
2022/02/28 00:19:48;;;;;;;152.30;35.60;;;;;;;-3.99;67.68;102072.31;130289;1268;107685;-76
2022/02/28 00:22:53;;;;;;;158.80;39.10;;;;;;;-4.05;67.74;102072.21;130325;1268;109042;-73
2022/02/28 00:26:00;;;;;;;133.60;34.90;;;;;;;-4.08;67.95;102072.06;130269;1268;108565;-73
2022/02/28 00:29:05;;;;;;;83.40;25.60;;;;;;;-4.09;67.56;102064.25;130307;1268;108987;-75
2022/02/28 00:32:11;;;;;;;78.40;25.50;;;;;;;-4.21;67.35;102067.33;130267;1268;108890;-75
2022/02/28 00:35:16;;;;;;;74.60;24.10;;;;;;;-4.27;67.60;102068.42;130258;1268;108758;-77
2022/02/28 00:38:23;;;;;;;63.60;22.50;;;;;;;-4.25;67.90;102072.58;130342;1268;106727;-75
2022/02/28 00:41:28;;;;;;;70.00;23.90;;;;;;;-4.25;67.49;102072.05;130267;1268;108681;-74
2022/02/28 00:44:34;;;;;;;73.70;25.10;;;;;;;-4.26;67.66;102072.21;130296;1268;108864;-75
2022/02/28 00:47:40;;;;;;;64.50;21.90;;;;;;;-4.25;67.70;102078.82;130260;1268;108852;-74
2022/02/28 00:50:46;;;;;;;63.00;21.80;;;;;;;-4.24;67.65;102082.81;130228;1268;108726;-76
2022/02/28 00:53:52;;;;;;;53.20;20.60;;;;;;;-4.24;67.52;102080.55;130223;1268;109113;-75
2022/02/28 00:56:57;;;;;;;46.70;18.10;;;;;;;-4.25;67.55;102082.11;130245;1268;108782;-75
2022/02/28 01:00:03;;;;;;;37.90;15.50;;;;;;;-4.24;67.61;102080.73;130181;1268;108871;-74
2022/02/28 01:03:09;;;;;;;36.30;15.50;;;;;;;-4.21;67.48;102073.75;130254;1268;108845;-77
2022/02/28 01:06:15;;;;;;;36.90;14.70;;;;;;;-4.13;67.42;102073.67;130283;1268;108683;-76
2022/02/28 01:09:20;;;;;;;52.10;19.20;;;;;;;-4.07;67.49;102073.45;130272;1268;108828;-78
2022/02/28 01:12:26;;;;;;;45.70;17.50;;;;;;;-4.01;67.67;102066.08;130224;1268;108861;-79
2022/02/28 01:15:31;;;;;;;44.80;17.10;;;;;;;-3.98;67.52;102066.23;130279;1268;108870;-77
2022/02/28 01:18:37;;;;;;;45.00;16.90;;;;;;;-3.97;67.47;102062.04;130292;1268;108750;-77
2022/02/28 01:21:42;;;;;;;39.00;15.10;;;;;;;-3.96;67.38;102059.77;130231;1268;108827;-77
2022/02/28 01:24:48;;;;;;;37.50;15.40;;;;;;;-3.98;67.29;102057.36;130222;1268;108697;-78
2022/02/28 01:27:53;;;;;;;40.60;15.90;;;;;;;-4.02;67.17;102054.96;130383;1268;108907;-80
2022/02/28 01:30:59;;;;;;;42.30;16.60;;;;;;;-4.06;67.49;102047.71;130441;1268;107251;-87
2022/02/28 01:34:05;;;;;;;37.00;15.20;;;;;;;-4.12;67.29;102046.56;130482;1268;108697;-86
2022/02/28 01:37:10;;;;;;;42.60;16.80;;;;;;;-4.24;67.06;102043.35;130377;1268;108882;-85
2022/02/28 01:40:17;;;;;;;40.70;15.40;;;;;;;-4.27;67.45;102046.70;130529;1268;107735;-87
2022/02/28 01:43:23;;;;;;;32.30;13.50;;;;;;;-4.29;67.48;102046.02;130581;1268;107362;-87
2022/02/28 01:46:29;;;;;;;30.70;13.20;;;;;;;-4.29;67.39;102044.64;130610;1268;107398;-87
2022/02/28 01:49:34;;;;;;;34.00;13.80;;;;;;;-4.34;67.33;102051.11;130416;1268;107793;-77
2022/02/28 01:52:40;;;;;;;35.20;13.50;;;;;;;-4.39;67.43;102052.36;130185;1268;109183;-78
2022/02/28 01:55:46;;;;;;;35.50;14.40;;;;;;;-4.47;67.02;102048.61;130316;1268;108862;-78
2022/02/28 01:58:52;;;;;;;32.90;13.10;;;;;;;-4.53;67.27;102052.14;130216;1268;106784;-77
2022/02/28 02:01:58;;;;;;;35.80;13.40;;;;;;;-4.55;67.21;102055.27;130285;1268;108893;-78
2022/02/28 02:05:04;;;;;;;32.80;13.20;;;;;;;-4.59;67.28;102055.82;130307;1268;108706;-80
2022/02/28 02:08:09;;;;;;;42.50;16.00;;;;;;;-4.63;67.33;102054.13;130298;1268;109909;-81
2022/02/28 02:11:16;;;;;;;46.10;16.90;;;;;;;-4.69;67.54;102058.87;130289;1268;108807;-78
2022/02/28 02:14:22;;;;;;;48.10;16.90;;;;;;;-4.71;67.14;102055.75;130293;1268;108755;-77
2022/02/28 02:17:28;;;;;;;36.80;14.60;;;;;;;-4.72;67.60;102059.75;130234;1268;106202;-77
2022/02/28 02:20:36;;;;;;;33.10;13.40;;;;;;;-4.77;67.29;102060.99;130251;1268;107893;-78
2022/02/28 02:23:43;;;;;;;33.80;14.00;;;;;;;-4.81;67.05;102065.00;130292;1268;107124;-78
2022/02/28 02:26:49;;;;;;;30.20;14.20;;;;;;;-4.86;67.28;102063.14;130313;1268;107005;-79
2022/02/28 02:29:54;;;;;;;38.10;14.80;;;;;;;-4.90;67.37;102067.50;130310;1268;108726;-80
2022/02/28 02:33:00;;;;;;;37.20;14.80;;;;;;;-4.93;67.20;102070.13;130175;1268;107487;-78
2022/02/28 02:36:08;;;;;;;37.20;14.60;;;;;;;-4.99;67.09;102068.27;130223;1268;107864;-79
2022/02/28 02:39:13;;;;;;;35.70;14.90;;;;;;;-5.06;67.20;102069.33;130343;1268;107873;-77
2022/02/28 02:42:19;;;;;;;32.60;13.00;;;;;;;-5.10;67.19;102069.70;130246;1268;107634;-78
2022/02/28 02:45:24;;;;;;;33.30;13.10;;;;;;;-5.09;67.27;102064.66;130253;1268;108746;-77
2022/02/28 02:48:30;;;;;;;29.80;12.40;;;;;;;-5.12;66.93;102064.17;130153;1268;108694;-78
2022/02/28 02:51:44;;;;;;;30.10;12.30;;;;;;;-5.17;66.84;102063.67;130276;1268;108668;-80
2022/02/28 02:54:51;;;;;;;28.60;11.50;;;;;;;-5.16;67.15;102066.27;130237;1268;107898;-79
2022/02/28 02:57:57;;;;;;;29.10;11.80;;;;;;;-5.17;67.36;102069.57;130453;1268;108812;-80
2022/02/28 03:01:04;;;;;;;30.30;12.20;;;;;;;-5.19;67.31;102070.10;130441;1268;107821;-78
2022/02/28 03:04:10;;;;;;;29.10;11.70;;;;;;;-5.19;67.16;102067.33;130305;1268;108929;-77
2022/02/28 03:07:18;;;;;;;29.30;12.40;;;;;;;-5.19;67.09;102072.88;130274;1268;109238;-74
2022/02/28 03:10:23;;;;;;;29.00;12.00;;;;;;;-5.20;67.04;102074.45;130361;1268;107145;-76
2022/02/28 03:13:29;;;;;;;27.30;12.20;;;;;;;-5.26;67.12;102072.23;130226;1268;107646;-76
2022/02/28 03:16:36;;;;;;;35.80;13.20;;;;;;;-5.30;67.04;102063.23;130309;1268;108765;-76
2022/02/28 03:19:41;;;;;;;40.60;14.90;;;;;;;-5.32;66.73;102062.36;130268;1268;108764;-75
2022/02/28 03:22:47;;;;;;;31.10;12.30;;;;;;;-5.33;66.95;102064.96;130281;1268;107652;-76
2022/02/28 03:25:54;;;;;;;29.30;11.70;;;;;;;-5.32;67.09;102070.17;130282;1268;107698;-75
2022/02/28 03:29:00;;;;;;;27.40;12.10;;;;;;;-5.32;67.04;102066.53;130261;1268;107261;-76
2022/02/28 03:32:07;;;;;;;27.10;11.50;;;;;;;-5.34;66.92;102070.17;130278;1268;108735;-76
2022/02/28 03:35:12;;;;;;;39.20;14.30;;;;;;;-5.35;66.96;102060.30;130240;1268;108924;-74
2022/02/28 03:38:19;;;;;;;31.60;12.50;;;;;;;-5.39;66.96;102064.99;130319;1268;108909;-77
2022/02/28 03:41:25;;;;;;;28.10;11.60;;;;;;;-5.47;66.66;102064.50;130258;1268;106664;-77
2022/02/28 03:44:31;;;;;;;27.10;12.00;;;;;;;-5.50;67.27;102061.56;130277;1268;108949;-77
2022/02/28 03:47:41;;;;;;;30.80;11.90;;;;;;;-5.52;67.02;102062.10;130232;1268;108669;-74
2022/02/28 03:51:10;;;;;;;27.10;11.70;;;;;;;-5.48;66.97;102059.14;130182;1268;108747;-77
2022/02/28 03:54:16;;;;;;;27.10;12.00;;;;;;;-5.45;67.03;102057.91;130259;1268;109087;-76
2022/02/28 03:57:23;;;;;;;24.00;11.40;;;;;;;-5.42;67.03;102063.80;130205;1268;108949;-77
2022/02/28 04:00:29;;;;;;;28.30;13.10;;;;;;;-5.45;66.92;102066.77;130260;1268;108862;-75
2022/02/28 04:03:34;;;;;;;37.20;14.00;;;;;;;-5.46;67.11;102065.55;130250;1268;108821;-74
2022/02/28 04:06:43;;;;;;;32.20;13.10;;;;;;;-5.40;67.34;102064.84;130321;1268;107706;-77
2022/02/28 04:09:49;;;;;;;69.10;19.80;;;;;;;-5.29;67.52;102061.13;130292;1268;108694;-76
2022/02/28 04:12:54;;;;;;;45.10;14.60;;;;;;;-5.25;67.27;102057.81;130238;1268;108777;-79
2022/02/28 04:16:00;;;;;;;52.90;17.00;;;;;;;-5.13;67.03;102066.43;130259;1268;108805;-77
2022/02/28 04:19:05;;;;;;;65.90;19.40;;;;;;;-5.08;67.01;102065.36;130162;1268;108752;-76
2022/02/28 04:22:31;;;;;;;60.00;18.20;;;;;;;-5.07;66.92;102065.70;130281;1268;108662;-78
2022/02/28 04:25:37;;;;;;;47.50;16.90;;;;;;;-5.09;66.91;102068.66;130291;1271;108939;-77
2022/02/28 04:28:43;;;;;;;40.40;14.80;;;;;;;-5.14;66.76;102075.64;130142;1271;108857;-79
2022/02/28 04:31:48;;;;;;;34.80;14.00;;;;;;;-5.22;66.64;102079.98;130148;1270;107716;-79
2022/02/28 04:34:55;;;;;;;31.60;11.80;;;;;;;-5.27;66.77;102083.66;130314;1269;108748;-80
2022/02/28 04:38:01;;;;;;;28.10;11.90;;;;;;;-5.30;66.93;102086.82;130308;1268;107785;-79
2022/02/28 04:41:07;;;;;;;27.90;10.70;;;;;;;-5.31;67.10;102087.69;130445;1269;107179;-79
2022/02/28 04:44:13;;;;;;;27.50;11.10;;;;;;;-5.36;66.63;102086.84;130299;1271;108537;-77
2022/02/28 04:47:18;;;;;;;25.10;10.40;;;;;;;-5.42;66.86;102097.09;130175;1271;108757;-78
2022/02/28 04:50:43;;;;;;;24.60;10.30;;;;;;;-5.48;66.78;102097.81;130284;1271;108890;-77
2022/02/28 04:53:48;;;;;;;25.50;10.90;;;;;;;-5.61;66.37;102099.94;130213;1269;108944;-77
2022/02/28 04:56:54;;;;;;;33.60;13.40;;;;;;;-5.68;66.96;102096.32;130274;1268;108818;-76
2022/02/28 04:59:59;;;;;;;29.60;11.30;;;;;;;-5.69;66.78;102097.70;130260;1268;108738;-78
2022/02/28 05:03:05;;;;;;;24.20;9.10;;;;;;;-5.72;66.93;102094.59;130200;1268;107416;-77
2022/02/28 05:06:13;;;;;;;24.20;9.60;;;;;;;-5.71;66.80;102096.48;130277;1268;108828;-77
2022/02/28 05:09:22;;;;;;;23.70;9.80;;;;;;;-5.76;66.78;102099.29;130320;1271;108724;-77
2022/02/28 05:12:28;;;;;;;23.00;9.60;;;;;;;-5.79;66.96;102100.86;130102;1271;108799;-78
2022/02/28 05:15:34;;;;;;;22.80;10.00;;;;;;;-5.78;66.99;102098.25;130208;1270;108743;-78
2022/02/28 05:18:39;;;;;;;23.10;10.30;;;;;;;-5.76;66.65;102101.02;130222;1271;108671;-76
2022/02/28 05:21:45;;;;;;;27.10;11.10;;;;;;;-5.75;67.12;102104.83;130239;1268;107678;-79
2022/02/28 05:24:51;;;;;;;22.70;10.10;;;;;;;-5.76;67.25;102103.10;130129;1271;108838;-79
2022/02/28 05:27:57;;;;;;;29.90;11.90;;;;;;;-5.78;67.27;102106.21;130243;1268;108939;-77
2022/02/28 05:31:02;;;;;;;32.60;13.40;;;;;;;-5.75;66.74;102108.82;130316;1268;108477;-76
2022/02/28 05:34:08;;;;;;;25.00;11.40;;;;;;;-5.75;66.77;102115.40;130263;1268;109037;-74
2022/02/28 05:37:16;;;;;;;27.60;10.70;;;;;;;-5.76;67.33;102116.44;130365;1268;108995;-75
2022/02/28 05:40:35;;;;;;;26.20;11.00;;;;;;;-5.77;67.19;102116.79;130346;1268;107750;-75
2022/02/28 05:43:42;;;;;;;29.50;11.50;;;;;;;-5.77;67.44;102122.69;130347;1268;108872;-74
2022/02/28 05:46:48;;;;;;;30.70;12.10;;;;;;;-5.75;67.57;102125.27;130309;1268;108720;-75
2022/02/28 05:49:57;;;;;;;33.10;11.80;;;;;;;-5.72;67.48;102129.08;130386;1268;108941;-74
2022/02/28 05:53:02;;;;;;;26.00;10.70;;;;;;;-5.69;68.04;102123.70;130321;1268;108601;-77
2022/02/28 05:56:08;;;;;;;23.90;10.90;;;;;;;-5.66;68.01;102127.52;130466;1268;107736;-75
2022/02/28 05:59:13;;;;;;;19.00;9.10;;;;;;;-5.62;68.10;102133.39;130371;1268;108993;-79
2022/02/28 06:02:19;;;;;;;24.30;11.10;;;;;;;-5.59;68.08;102139.80;130558;1268;108480;-78
2022/02/28 06:05:24;;;;;;;27.40;10.90;;;;;;;-5.54;67.58;102136.49;130542;1268;108669;-77
2022/02/28 06:08:30;;;;;;;22.50;9.20;;;;;;;-5.41;68.00;102139.23;130351;1268;108981;-78
2022/02/28 06:11:35;;;;;;;27.00;11.20;;;;;;;-5.23;68.22;102137.26;130442;1268;108734;-80
2022/02/28 06:14:41;;;;;;;26.20;10.80;;;;;;;-5.00;69.20;102136.98;130496;1268;108565;-76
2022/02/28 06:17:46;;;;;;;27.70;11.60;;;;;;;-4.85;68.77;102135.00;130919;1268;108713;-77
2022/02/28 06:20:51;;;;;;;31.50;12.20;;;;;;;-4.70;69.65;102141.52;130279;1268;108839;-77
2022/02/28 06:23:57;;;;;;;30.60;11.60;;;;;;;-4.60;69.03;102140.06;130292;1268;106866;-77
2022/02/28 06:27:03;;;;;;;35.70;14.30;;;;;;;-4.48;70.13;102144.84;130277;1268;107746;-77
2022/02/28 06:30:10;;;;;;;34.20;13.60;;;;;;;-4.36;70.44;102145.45;130270;1268;108748;-77
2022/02/28 06:33:16;;;;;;;33.70;14.10;;;;;;;-4.23;70.76;102143.09;130304;1268;108897;-75
2022/02/28 06:36:21;;;;;;;30.40;13.40;;;;;;;-4.13;71.06;102148.24;130286;1268;108825;-75
2022/02/28 06:39:27;;;;;;;31.20;14.00;;;;;;;-4.05;70.97;102151.81;130274;1271;108793;-74
2022/02/28 06:42:37;;;;;;;33.00;14.70;;;;;;;-3.97;71.16;102150.36;130295;1268;108955;-77
2022/02/28 06:45:43;;;;;;;25.90;11.80;;;;;;;-3.84;71.46;102149.02;130352;1268;110057;-75
2022/02/28 06:48:49;;;;;;;25.10;11.30;;;;;;;-3.70;71.44;102157.92;130269;1269;109011;-76
2022/02/28 06:51:54;;;;;;;23.80;11.20;;;;;;;-3.58;71.72;102151.73;130191;1268;107776;-76
2022/02/28 06:55:00;;;;;;;20.10;10.80;;;;;;;-3.43;71.26;102158.00;130281;1268;108035;-75
2022/02/28 06:58:05;;;;;;;26.00;10.40;;;;;;;-3.26;71.17;102164.59;130275;1271;108885;-75
2022/02/28 07:01:11;;;;;;;25.00;9.60;;;;;;;-3.05;71.26;102167.66;130285;1271;108718;-75
2022/02/28 07:04:29;;;;;;;21.80;11.00;;;;;;;-2.82;71.17;102167.88;130354;1268;108724;-75
2022/02/28 07:07:34;;;;;;;22.70;10.20;;;;;;;-2.65;71.08;102171.15;130359;1270;107713;-75
2022/02/28 07:10:40;;;;;;;21.60;10.10;;;;;;;-2.50;71.03;102173.88;130281;1268;108933;-75
2022/02/28 07:13:46;;;;;;;17.80;8.70;;;;;;;-2.37;70.97;102178.58;130284;1269;108777;-76
2022/02/28 07:16:52;;;;;;;17.50;9.60;;;;;;;-2.26;70.78;102181.56;130274;1269;108816;-75
2022/02/28 07:19:57;;;;;;;17.60;8.50;;;;;;;-2.20;70.87;102185.83;130281;1268;108689;-77
2022/02/28 07:23:04;;;;;;;15.50;8.90;;;;;;;-2.12;70.81;102186.57;130299;1271;108769;-75
2022/02/28 07:26:09;;;;;;;19.10;8.70;;;;;;;-2.07;70.55;102188.75;130269;1271;108668;-76
2022/02/28 07:29:15;;;;;;;19.20;9.60;;;;;;;-2.02;70.84;102190.07;130286;1268;108848;-75
2022/02/28 07:32:20;;;;;;;17.90;9.70;;;;;;;-1.96;70.78;102193.45;130259;1268;109146;-75
2022/02/28 07:35:27;;;;;;;18.80;9.20;;;;;;;-1.91;70.88;102194.45;130352;1269;108996;-77
2022/02/28 07:38:33;;;;;;;17.60;9.10;;;;;;;-1.86;70.82;102195.23;130319;1268;108775;-75
2022/02/28 07:41:38;;;;;;;16.40;9.40;;;;;;;-1.80;70.92;102197.20;130361;1268;108671;-75
2022/02/28 07:44:44;;;;;;;20.40;9.90;;;;;;;-1.72;71.05;102199.00;130309;1268;108866;-76
2022/02/28 07:47:49;;;;;;;22.90;10.50;;;;;;;-1.63;71.20;102205.30;130279;1269;108630;-75
2022/02/28 07:50:55;;;;;;;19.90;10.10;;;;;;;-1.52;70.62;102203.17;130220;1268;108699;-77
2022/02/28 07:54:01;;;;;;;22.70;10.80;;;;;;;-1.40;70.70;102205.21;130287;1268;108697;-76
2022/02/28 07:57:06;;;;;;;19.30;10.10;;;;;;;-1.27;70.59;102203.05;130278;1268;107331;-76
2022/02/28 08:00:13;;;;;;;20.30;9.70;;;;;;;-1.13;70.47;102200.88;130273;1268;109055;-75
2022/02/28 08:03:19;;;;;;;18.50;9.90;;;;;;;-1.04;70.40;102209.23;130285;1268;108480;-76
2022/02/28 08:06:24;;;;;;;18.70;9.70;;;;;;;-0.96;70.37;102207.69;130268;1268;108862;-74
2022/02/28 08:09:30;;;;;;;20.90;11.20;;;;;;;-0.88;70.12;102206.33;130465;1268;108675;-74
2022/02/28 08:12:35;;;;;;;17.70;9.50;;;;;;;-0.84;70.22;102210.77;130290;1268;108746;-75
2022/02/28 08:15:41;;;;;;;17.20;9.50;;;;;;;-0.81;70.05;102213.16;130222;1268;172027;-75
2022/02/28 08:18:47;;;;;;;20.90;10.80;;;;;;;-0.77;70.22;102212.55;130312;1268;107382;-75
2022/02/28 08:21:53;;;;;;;18.70;9.80;;;;;;;-0.71;70.39;102220.30;130309;1268;108945;-76
2022/02/28 08:24:59;;;;;;;19.70;10.80;;;;;;;-0.65;70.26;102223.14;130229;1268;107230;-76
2022/02/28 08:28:05;;;;;;;24.40;11.20;;;;;;;-0.59;70.01;102225.11;130280;1271;108785;-75
2022/02/28 08:31:10;;;;;;;21.20;11.30;;;;;;;-0.53;69.86;102222.36;130348;1271;107857;-76
2022/02/28 08:34:17;;;;;;;20.90;9.70;;;;;;;-0.49;69.76;102226.98;130255;1271;108820;-76
2022/02/28 08:37:22;;;;;;;23.00;13.00;;;;;;;-0.43;69.70;102228.77;130286;1268;108728;-76
2022/02/28 08:40:28;;;;;;;19.70;10.10;;;;;;;-0.36;69.65;102230.90;130277;1269;108755;-73
2022/02/28 08:43:34;;;;;;;19.10;9.90;;;;;;;-0.31;69.38;102226.59;130320;1268;108735;-74
2022/02/28 08:46:39;;;;;;;16.80;8.80;;;;;;;-0.25;69.27;102229.95;130466;1268;107632;-73
2022/02/28 08:49:45;;;;;;;17.80;8.80;;;;;;;-0.20;68.95;102228.80;130421;1268;108979;-73
2022/02/28 08:52:50;;;;;;;17.00;9.40;;;;;;;-0.16;68.77;102228.00;130286;1268;108841;-73
2022/02/28 08:55:56;;;;;;;15.30;8.00;;;;;;;-0.12;68.92;102232.27;130368;1268;108858;-72
2022/02/28 08:59:01;;;;;;;16.70;9.20;;;;;;;-0.08;69.07;102232.53;130346;1268;108953;-73
2022/02/28 09:02:07;;;;;;;13.40;7.50;;;;;;;-0.01;68.87;102238.14;130334;1268;108900;-73
2022/02/28 09:05:13;;;;;;;14.80;7.40;;;;;;;0.05;68.67;102237.30;130370;1268;108751;-73
2022/02/28 09:08:18;;;;;;;14.00;7.60;;;;;;;0.10;68.53;102240.86;130344;1268;107709;-72
2022/02/28 09:11:24;;;;;;;14.20;7.30;;;;;;;0.14;68.48;102242.52;130372;1268;106853;-72
2022/02/28 09:14:29;;;;;;;13.00;6.80;;;;;;;0.18;68.45;102240.31;130351;1268;108721;-73
2022/02/28 09:17:35;;;;;;;14.10;7.00;;;;;;;0.22;68.41;102244.40;130311;1268;107205;-76
2022/02/28 09:20:41;;;;;;;13.10;7.40;;;;;;;0.28;68.58;102241.11;130330;1268;108864;-71
2022/02/28 09:23:46;;;;;;;13.60;8.00;;;;;;;0.37;68.60;102248.94;130288;1268;108879;-73
2022/02/28 09:26:52;;;;;;;14.60;7.40;;;;;;;0.44;68.32;102247.89;130375;1268;108828;-73
2022/02/28 09:29:57;;;;;;;13.60;7.40;;;;;;;0.50;68.51;102249.84;130273;1268;108832;-74
2022/02/28 09:33:03;;;;;;;11.00;7.10;;;;;;;0.58;68.32;102251.39;130319;1268;108673;-73
2022/02/28 09:36:09;;;;;;;14.40;8.00;;;;;;;0.67;68.32;102251.52;130295;1268;107608;-72
2022/02/28 09:39:16;;;;;;;16.70;8.30;;;;;;;0.75;68.04;102255.67;130387;1268;107808;-73
2022/02/28 09:42:49;;;;;;;63.90;44.10;;;;;;;0.84;68.09;102251.76;130109;1271;109146;-73
2022/02/28 09:46:14;;;;;;;23.30;14.20;;;;;;;0.95;68.07;102252.52;130231;1268;108942;-74
2022/02/28 09:49:39;;;;;;;59.10;40.20;;;;;;;1.05;68.02;102249.44;130273;1268;108600;-73
2022/02/28 09:53:06;;;;;;;28.50;17.40;;;;;;;1.13;67.49;102250.60;130226;1271;109185;-74
2022/02/28 09:56:29;;;;;;;17.20;10.00;;;;;;;1.22;67.81;102248.44;130221;1268;108991;-74
2022/02/28 09:59:53;;;;;;;26.20;20.70;;;;;;;1.31;67.59;102247.65;130351;1268;107620;-74
2022/02/28 10:03:02;;;;;;;18.80;11.90;;;;;;;1.39;67.71;102246.36;130267;1268;108830;-74
2022/02/28 10:06:08;;;;;;;26.50;14.80;;;;;;;1.48;67.62;102249.08;130373;1271;108789;-73
2022/02/28 10:09:19;;;;;;;12.40;6.50;;;;;;;1.58;66.99;102246.16;130190;1271;108945;-74
2022/02/28 10:12:32;;;;;;;67.40;56.70;;;;;;;1.67;67.15;102242.02;130191;1271;108593;-73
2022/02/28 10:15:38;;;;;;;23.30;15.60;;;;;;;1.85;66.66;102244.63;130050;1271;108917;-74
2022/02/28 10:18:46;;;;;;;16.30;10.80;;;;;;;2.00;65.51;102242.06;130200;1271;110332;-74
2022/02/28 10:21:53;;;;;;;8.30;5.50;;;;;;;2.12;65.40;102247.79;130253;1271;108844;-73
2022/02/28 10:24:59;;;;;;;22.90;18.40;;;;;;;2.22;65.23;102252.23;130263;1271;108735;-73
2022/02/28 10:28:26;;;;;;;41.90;31.40;;;;;;;2.26;65.67;102249.63;130267;1268;108992;-74
2022/02/28 10:31:52;;;;;;;10.50;5.60;;;;;;;2.30;65.19;102251.27;130315;1268;108684;-74
2022/02/28 10:38:50;;;;;;;11.30;6.10;;;;;;;2.34;64.12;102248.67;130257;1271;108702;-74
2022/02/28 10:41:56;;;;;;;34.70;17.20;;;;;;;2.36;64.15;102249.48;130240;1268;108585;-75
2022/02/28 10:45:19;;;;;;;22.50;9.10;;;;;;;2.37;64.07;102250.85;130418;1268;108797;-75
2022/02/28 10:48:26;;;;;;;13.20;6.40;;;;;;;2.40;64.57;102255.17;130415;1268;108075;-74
2022/02/28 10:51:43;;;;;;;12.50;6.00;;;;;;;2.39;64.04;102258.18;130326;1268;108912;-76
2022/02/28 10:54:49;;;;;;;9.50;4.20;;;;;;;2.36;64.06;102257.21;130330;1268;108422;-75
2022/02/28 10:58:07;;;;;;;7.70;4.10;;;;;;;2.39;63.14;102259.04;130369;1268;108959;-75
2022/02/28 11:01:13;;;;;;;7.60;4.20;;;;;;;2.39;63.74;102259.05;130383;1268;107786;-76
2022/02/28 11:04:31;;;;;;;17.50;8.70;;;;;;;2.42;63.42;102257.02;130332;1268;109023;-76
2022/02/28 11:07:42;;;;;;;11.00;5.20;;;;;;;2.43;62.92;102255.04;130400;1268;108854;-73
2022/02/28 11:10:48;;;;;;;6.90;3.60;;;;;;;2.41;63.30;102256.01;130362;1268;108657;-75
2022/02/28 11:13:54;;;;;;;7.30;4.00;;;;;;;2.44;62.98;102251.52;130395;1268;107671;-75
2022/02/28 11:17:00;;;;;;;8.80;4.40;;;;;;;2.51;62.87;102249.33;130360;1268;108626;-74
2022/02/28 11:20:10;;;;;;;7.10;3.00;;;;;;;2.65;61.73;102254.13;130276;1268;108516;-75
2022/02/28 11:23:18;;;;;;;14.30;10.00;;;;;;;2.81;62.31;102249.20;130404;1268;108882;-75
2022/02/28 11:26:24;;;;;;;7.90;3.90;;;;;;;2.98;62.15;102247.20;130362;1268;108881;-72
2022/02/28 11:29:30;;;;;;;6.70;3.60;;;;;;;3.09;60.38;102244.83;130297;1268;107676;-75
2022/02/28 11:32:37;;;;;;;12.10;9.50;;;;;;;3.21;61.40;102242.48;130323;1268;108770;-74
2022/02/28 11:35:46;;;;;;;6.00;3.60;;;;;;;3.28;60.82;102243.46;130431;1268;106707;-75
2022/02/28 11:38:52;;;;;;;12.80;7.30;;;;;;;3.35;61.54;102242.46;130341;1268;107104;-72
2022/02/28 11:41:58;;;;;;;11.00;7.20;;;;;;;3.47;60.62;102244.65;130478;1268;108909;-74
2022/02/28 11:45:04;;;;;;;8.10;4.50;;;;;;;3.55;60.35;102240.14;130568;1268;108694;-74
2022/02/28 11:48:27;;;;;;;9.00;4.90;;;;;;;3.62;59.54;102241.98;130298;1268;108796;-75
2022/02/28 11:51:36;;;;;;;10.70;6.70;;;;;;;3.60;59.52;102244.52;130244;1268;107284;-74
2022/02/28 11:54:45;;;;;;;11.50;5.90;;;;;;;3.51;59.80;102244.70;130289;1268;109569;-74
2022/02/28 11:57:52;;;;;;;8.50;4.00;;;;;;;3.43;59.71;102246.23;130218;1268;108864;-75
2022/02/28 12:01:13;;;;;;;7.70;4.80;;;;;;;3.43;59.83;102245.16;130337;1268;108848;-76
2022/02/28 12:04:21;;;;;;;9.00;5.70;;;;;;;3.52;59.63;102244.65;130298;1268;108957;-75
2022/02/28 12:07:35;;;;;;;7.10;3.70;;;;;;;3.62;58.92;102239.17;130291;1268;108712;-75
2022/02/28 12:10:43;;;;;;;93.80;65.30;;;;;;;3.65;58.17;102231.14;130301;1268;108841;-75
2022/02/28 12:14:01;;;;;;;9.60;4.90;;;;;;;3.73;56.84;102237.00;130324;1268;107419;-75
2022/02/28 12:20:42;;;;;;;135.50;84.50;;;;;;;3.84;57.36;102232.68;130234;1268;108987;-75
2022/02/28 12:23:48;;;;;;;44.80;27.90;;;;;;;3.89;57.52;102235.98;130255;1268;108768;-74
2022/02/28 12:27:16;;;;;;;24.40;15.60;;;;;;;3.93;57.35;102240.59;130291;1268;108769;-74
2022/02/28 12:30:45;;;;;;;28.30;19.80;;;;;;;3.99;56.83;102241.23;130234;1268;108662;-75
2022/02/28 12:34:03;;;;;;;21.30;14.20;;;;;;;3.99;56.62;102237.70;130226;1268;108415;-75
2022/02/28 12:37:08;;;;;;;11.80;5.70;;;;;;;4.00;56.75;102243.67;130320;1267;108955;-75
2022/02/28 12:40:14;;;;;;;7.90;4.50;;;;;;;4.01;57.11;102238.36;130269;1268;108904;-74
2022/02/28 12:43:20;;;;;;;9.00;5.70;;;;;;;4.00;57.04;102236.63;130267;1268;108795;-74
2022/02/28 12:46:28;;;;;;;6.00;3.40;;;;;;;4.00;56.84;102230.98;130245;1268;107751;-73
2022/02/28 12:49:35;;;;;;;7.50;4.10;;;;;;;3.98;56.38;102230.73;130170;1268;108645;-75
2022/02/28 12:52:50;;;;;;;15.90;11.50;;;;;;;3.96;55.96;102235.03;130233;1268;108689;-74
2022/02/28 12:55:58;;;;;;;6.40;3.10;;;;;;;3.95;55.56;102237.20;130244;1268;108685;-75
2022/02/28 12:59:04;;;;;;;5.10;2.50;;;;;;;3.93;55.10;102239.88;130285;1268;108680;-75
2022/02/28 13:02:10;;;;;;;3.80;2.20;;;;;;;3.91;56.12;102240.67;130305;1268;108877;-75
2022/02/28 13:05:21;;;;;;;6.00;3.30;;;;;;;3.90;55.74;102233.98;130331;1268;108714;-74
2022/02/28 13:08:27;;;;;;;3.80;2.30;;;;;;;3.89;54.47;102235.64;130273;1268;108959;-75
2022/02/28 13:11:34;;;;;;;69.70;53.70;;;;;;;3.88;54.89;102237.79;130250;1268;108570;-74
2022/02/28 13:14:43;;;;;;;11.30;6.90;;;;;;;3.90;55.15;102231.21;130244;1268;108730;-75
2022/02/28 13:17:49;;;;;;;7.00;3.60;;;;;;;3.90;54.61;102231.34;130297;1268;108812;-75
2022/02/28 13:20:55;;;;;;;6.60;3.20;;;;;;;3.90;54.54;102231.73;130269;1268;108713;-75
2022/02/28 13:24:06;;;;;;;4.50;2.40;;;;;;;3.89;53.85;102230.01;130250;1268;108828;-76
2022/02/28 13:27:13;;;;;;;4.00;2.40;;;;;;;3.85;52.52;102229.98;130266;1268;108750;-74
2022/02/28 13:30:18;;;;;;;6.90;4.10;;;;;;;3.85;54.43;102228.58;130614;1268;108736;-75
2022/02/28 13:33:24;;;;;;;32.80;23.90;;;;;;;3.88;54.58;102229.00;130355;1268;107330;-76
2022/02/28 13:36:35;;;;;;;12.20;7.20;;;;;;;3.89;54.25;102226.29;130305;1268;108806;-76
2022/02/28 13:39:42;;;;;;;7.80;3.50;;;;;;;3.89;53.34;102228.92;130405;1268;108941;-75
2022/02/28 13:42:47;;;;;;;8.50;5.10;;;;;;;3.88;53.48;102228.83;130390;1268;106789;-76
2022/02/28 13:45:54;;;;;;;5.40;3.40;;;;;;;3.87;53.75;102224.45;130411;1268;107895;-76
2022/02/28 13:49:01;;;;;;;3.70;2.30;;;;;;;3.87;53.26;102226.23;130575;1268;108478;-76
2022/02/28 13:52:10;;;;;;;5.60;3.40;;;;;;;3.88;53.69;102222.85;130944;1268;109418;-78
2022/02/28 13:55:18;;;;;;;4.30;2.40;;;;;;;3.89;53.14;102223.16;130400;1268;108879;-78
2022/02/28 13:58:29;;;;;;;6.10;3.20;;;;;;;3.89;53.12;102226.66;130473;1268;109921;-75
2022/02/28 14:01:35;;;;;;;8.60;5.70;;;;;;;3.91;52.83;102228.17;130454;1268;108679;-76
2022/02/28 14:04:42;;;;;;;10.50;7.10;;;;;;;3.91;53.05;102225.19;130255;1268;108749;-76
2022/02/28 14:07:59;;;;;;;7.80;5.60;;;;;;;3.92;53.00;102226.71;130268;1268;108789;-73